Time;durP1;ratioP1;P1;durP2;ratioP2;P2;SDS_P1;SDS_P2;PMS_P1;PMS_P2;Temp;Humidity;BMP_temperature;BMP_pressure;BME280_temperature;BME280_humidity;BME280_pressure;Samples;Min_cycle;Max_cycle;Signal;HPM_P1;HPM_P2
2022/01/16 00:00:20;;;;;;;;;56.25;40.50;;;;;3.94;58.42;102165.16;4919368;28;45621;-71
2022/01/16 00:05:23;;;;;;;;;59.50;44.50;;;;;3.92;59.22;102176.44;4926107;28;46129;-69
2022/01/16 00:07:49;;;;;;;;;47.75;38.75;;;;;3.95;59.20;102160.81;4926907;28;45541;-73
2022/01/16 00:10:17;;;;;;;;;51.00;37.00;;;;;3.90;58.99;102138.41;4935400;28;45707;-69
2022/01/16 00:12:47;;;;;;;;;54.00;37.00;;;;;3.59;58.98;102097.31;4926848;28;45530;-70
2022/01/16 00:15:16;;;;;;;;;48.50;39.75;;;;;3.89;59.12;102163.91;4926916;28;46488;-71
2022/01/16 00:17:52;;;;;;;;;66.25;44.00;;;;;3.87;59.27;102173.44;4941384;28;45516;-70
2022/01/16 00:20:18;;;;;;;;;60.00;38.25;;;;;3.73;59.60;102174.09;4925056;28;45476;-69
2022/01/16 00:22:45;;;;;;;;;57.50;39.25;;;;;3.47;59.76;102131.66;4915176;28;45643;-72
2022/01/16 00:25:11;;;;;;;;;58.25;39.00;;;;;3.56;60.16;102151.66;4927897;28;46309;-71
2022/01/16 00:27:36;;;;;;;;;62.25;45.25;;;;;3.57;59.90;102183.50;4934161;28;45512;-70
2022/01/16 00:30:02;;;;;;;;;52.00;40.75;;;;;3.53;60.04;102180.50;4919201;28;45785;-69
2022/01/16 00:32:27;;;;;;;;;53.25;38.75;;;;;3.60;60.11;102210.19;4926798;28;45598;-69
2022/01/16 00:34:52;;;;;;;;;32.25;17.75;;;;;3.48;59.73;102204.84;4922928;28;45730;-70
2022/01/16 00:37:18;;;;;;;;;54.75;39.50;;;;;3.44;60.11;102186.91;4929510;28;45686;-71
2022/01/16 00:39:43;;;;;;;;;58.75;39.75;;;;;3.76;60.06;102203.44;4935222;28;45414;-68
2022/01/16 00:42:08;;;;;;;;;48.00;37.75;;;;;3.77;59.08;102149.75;4930656;28;45500;-70
2022/01/16 00:44:34;;;;;;;;;62.50;41.50;;;;;3.98;58.64;102163.72;4922468;28;45517;-69
2022/01/16 00:46:59;;;;;;;;;54.50;38.50;;;;;3.87;58.63;102141.72;4932678;28;45243;-70
2022/01/16 00:49:25;;;;;;;;;48.00;39.25;;;;;4.21;58.73;102176.94;4930063;28;45335;-70
2022/01/16 00:51:50;;;;;;;;;59.50;43.50;;;;;4.03;58.15;102133.25;4933391;28;45517;-74
2022/01/16 00:54:15;;;;;;;;;48.25;38.00;;;;;4.36;57.33;102181.53;4917772;28;47106;-70
2022/01/16 00:56:41;;;;;;;;;49.50;38.25;;;;;4.24;58.15;102181.53;4922546;28;45531;-70
2022/01/16 00:59:07;;;;;;;;;37.25;33.00;;;;;4.33;57.72;102173.38;4932643;28;45588;-70
2022/01/16 01:01:32;;;;;;;;;57.50;44.75;;;;;4.14;56.92;102158.78;4930643;28;45550;-72
2022/01/16 01:03:58;;;;;;;;;55.25;38.75;;;;;4.33;56.81;102202.47;4930733;28;45505;-69
2022/01/16 01:06:23;;;;;;;;;52.75;39.75;;;;;4.20;56.95;102169.78;4917134;28;45812;-70
2022/01/16 01:08:49;;;;;;;;;60.75;40.75;;;;;4.37;56.68;102217.75;4919216;28;45472;-71
2022/01/16 01:11:17;;;;;;;;;52.50;39.75;;;;;4.51;57.02;102229.38;4925827;28;45357;-70
2022/01/16 01:14:40;;;;;;;;;49.50;40.75;;;;;4.28;56.66;102203.84;4928587;28;45546;-70
2022/01/16 01:19:12;;;;;;;;;55.25;38.50;;;;;4.43;56.22;102186.47;4937594;28;45635;-70
2022/01/16 01:21:38;;;;;;;;;52.25;40.75;;;;;4.79;56.33;102213.81;4936216;28;45417;-71
2022/01/16 01:24:04;;;;;;;;;56.75;41.00;;;;;4.67;56.07;102112.31;4937466;28;46617;-71
2022/01/16 01:26:35;;;;;;;;;50.25;38.25;;;;;4.86;56.00;102138.38;4927496;28;45256;-70
2022/01/16 01:29:00;;;;;;;;;47.75;36.50;;;;;4.77;56.00;102107.78;4940980;28;45619;-71
2022/01/16 01:31:27;;;;;;;;;55.50;41.00;;;;;4.86;55.88;102115.47;4927139;28;45571;-71
2022/01/16 01:33:52;;;;;;;;;44.25;39.75;;;;;4.93;55.10;102125.72;4928728;28;46221;-69
2022/01/16 01:36:17;;;;;;;;;55.50;41.25;;;;;4.57;55.77;102081.59;4925544;28;46474;-69
2022/01/16 01:38:43;;;;;;;;;53.75;43.50;;;;;4.42;55.85;102099.94;4929918;28;45517;-70
2022/01/16 01:41:08;;;;;;;;;62.00;44.00;;;;;4.64;56.76;102203.03;4928283;28;45283;-70
2022/01/16 01:51:33;;;;;;;;;54.75;39.75;;;;;4.41;57.96;102233.06;4917909;28;45378;-69
2022/01/16 01:54:00;;;;;;;;;68.00;38.50;;;;;4.36;57.56;102229.16;4920559;28;45605;-70
2022/01/16 01:56:27;;;;;;;;;56.75;43.25;;;;;4.50;57.43;102239.03;4923009;28;45488;-70
2022/01/16 01:58:55;;;;;;;;;55.50;39.75;;;;;4.19;57.34;102193.47;4925341;28;45548;-72
2022/01/16 02:01:21;;;;;;;;;62.25;40.50;;;;;4.20;57.52;102201.53;4920363;28;45367;-72
2022/01/16 02:03:48;;;;;;;;;54.00;41.50;;;;;4.46;57.56;102252.84;4913666;28;46399;-72
2022/01/16 02:06:17;;;;;;;;;59.25;42.25;;;;;4.69;56.69;102272.19;4915504;28;46060;-72
2022/01/16 02:08:48;;;;;;;;;65.75;44.75;;;;;4.50;57.39;102285.75;4924797;28;45462;-69
2022/01/16 02:11:15;;;;;;;;;56.00;42.00;;;;;4.32;58.43;102278.25;4927756;28;45465;-69
2022/01/16 02:30:39;;;;;;;;;53.50;40.75;;;;;4.66;58.88;102278.16;4926918;28;45403;-69
2022/01/16 02:35:10;;;;;;;;;50.25;38.00;;;;;4.68;58.21;102276.53;4921064;28;45369;-70
2022/01/16 02:37:35;;;;;;;;;60.00;40.75;;;;;4.46;58.34;102221.09;4924796;28;45560;-70
2022/01/16 02:40:09;;;;;;;;;53.75;43.50;;;;;4.75;58.76;102272.63;4921766;28;45452;-69
2022/01/16 02:42:39;;;;;;;;;51.25;40.50;;;;;4.56;58.46;102220.97;4936037;28;45379;-69
2022/01/16 02:45:06;;;;;;;;;56.50;41.50;;;;;4.83;58.35;102250.28;4936434;28;45414;-70
2022/01/16 02:47:32;;;;;;;;;53.00;37.25;;;;;4.89;58.30;102265.72;4927563;28;45036;-70
2022/01/16 02:49:59;;;;;;;;;60.25;40.50;;;;;4.71;58.65;102225.56;4920952;28;45575;-69
2022/01/16 02:52:25;;;;;;;;;59.75;40.25;;;;;4.83;58.14;102254.66;4925549;28;45530;-70
2022/01/16 02:54:53;;;;;;;;;61.75;44.00;;;;;4.70;59.02;102236.94;4933965;28;46361;-70
2022/01/16 02:57:21;;;;;;;;;57.25;42.50;;;;;4.69;58.58;102245.72;4923220;28;45430;-69
2022/01/16 02:59:53;;;;;;;;;54.75;42.50;;;;;4.67;58.48;102236.72;4934140;28;45550;-72
2022/01/16 03:02:21;;;;;;;;;56.75;40.50;;;;;4.70;58.59;102227.31;4932880;28;45495;-70
2022/01/16 03:04:46;;;;;;;;;58.25;44.25;;;;;4.32;58.29;102158.28;4920545;28;45510;-70
2022/01/16 03:07:12;;;;;;;;;56.25;43.50;;;;;4.69;58.50;102240.44;4924578;28;45486;-70
2022/01/16 03:12:38;;;;;;;;;57.00;43.75;;;;;4.72;58.34;102199.22;4857687;29;45553;-70
2022/01/16 03:15:05;;;;;;;;;64.25;42.25;;;;;4.49;57.95;102188.63;4924317;28;45257;-70
2022/01/16 03:17:51;;;;;;;;;55.25;38.00;;;;;4.36;58.72;102187.72;4930779;28;45351;-70
2022/01/16 03:23:00;;;;;;;;;62.50;44.00;;;;;4.59;59.06;102215.00;4940406;28;45323;-70
2022/01/16 03:25:25;;;;;;;;;47.75;41.75;;;;;4.40;58.98;102192.44;4929324;28;45395;-70
2022/01/16 03:27:51;;;;;;;;;62.25;41.00;;;;;4.43;58.99;102204.97;4929880;28;45894;-71
2022/01/16 03:30:16;;;;;;;;;59.25;45.25;;;;;4.05;59.25;102161.63;4935593;28;45324;-72
2022/01/16 03:32:43;;;;;;;;;53.00;41.50;;;;;4.17;59.23;102205.66;4932183;28;45227;-70
2022/01/16 03:35:08;;;;;;;;;51.50;38.50;;;;;4.38;59.21;102223.16;4932009;28;46165;-71
2022/01/16 03:37:34;;;;;;;;;60.25;40.25;;;;;4.20;59.96;102203.25;4922609;28;45534;-70
2022/01/16 03:40:04;;;;;;;;;52.50;39.50;;;;;4.26;59.72;102214.31;4918839;28;45699;-69
2022/01/16 03:42:32;;;;;;;;;64.50;45.75;;;;;4.39;60.41;102239.97;4921954;28;45789;-69
2022/01/16 03:44:58;;;;;;;;;63.00;42.75;;;;;4.46;59.59;102242.28;4936265;28;45746;-69
2022/01/16 03:47:23;;;;;;;;;48.75;40.00;;;;;4.47;59.53;102244.13;4938305;28;45329;-69
2022/01/16 03:49:48;;;;;;;;;52.50;41.75;;;;;4.27;59.91;102188.78;4950296;28;45051;-71
2022/01/16 03:52:14;;;;;;;;;61.50;44.50;;;;;4.47;59.71;102211.44;4937151;28;45165;-70
2022/01/16 03:54:39;;;;;;;;;64.00;47.25;;;;;4.56;59.90;102215.69;4943723;28;45383;-69
2022/01/16 03:57:04;;;;;;;;;55.75;40.00;;;;;4.39;59.73;102185.31;4944713;28;45309;-69
2022/01/16 03:59:31;;;;;;;;;58.00;42.75;;;;;4.47;59.30;102185.91;4951075;28;45004;-69
2022/01/16 04:01:56;;;;;;;;;65.50;44.25;;;;;4.72;59.43;102222.09;4936999;28;45023;-69
2022/01/16 04:04:21;;;;;;;;;58.25;38.25;;;;;4.48;59.16;102192.09;4929024;28;45648;-69
2022/01/16 04:06:47;;;;;;;;;59.50;43.25;;;;;4.66;58.93;102234.91;4933734;28;45430;-70
2022/01/16 04:09:12;;;;;;;;;60.75;46.50;;;;;4.61;59.30;102232.81;4930432;28;45657;-70
2022/01/16 04:11:44;;;;;;;;;61.50;45.00;;;;;4.61;59.57;102234.56;4930842;28;45709;-69
2022/01/16 04:14:15;;;;;;;;;65.25;48.00;;;;;4.40;59.55;102221.53;4917587;28;47243;-70
2022/01/16 04:16:41;;;;;;;;;61.75;46.50;;;;;3.95;59.62;102144.97;4922635;28;45446;-69
2022/01/16 04:19:06;;;;;;;;;58.75;41.25;;;;;4.48;60.04;102252.97;4922311;28;45371;-69
2022/01/16 04:21:31;;;;;;;;;54.50;44.00;;;;;4.47;59.80;102259.06;4924582;28;45359;-70
2022/01/16 04:23:58;;;;;;;;;57.25;42.00;;;;;4.31;59.99;102251.72;4918276;28;46176;-69
2022/01/16 04:26:25;;;;;;;;;63.50;45.00;;;;;4.46;60.17;102265.19;4921751;28;45417;-69
2022/01/16 04:28:51;;;;;;;;;48.00;39.75;;;;;4.22;60.12;102241.31;4929474;28;45469;-69
2022/01/16 04:31:17;;;;;;;;;58.75;42.25;;;;;4.15;60.22;102224.06;4913223;28;45458;-70
2022/01/16 04:33:43;;;;;;;;;57.00;38.00;;;;;4.33;60.26;102271.25;4921014;28;45355;-70
2022/01/16 04:36:10;;;;;;;;;61.50;43.75;;;;;4.12;60.29;102266.16;4928809;28;45343;-70
2022/01/16 04:38:36;;;;;;;;;61.00;48.25;;;;;4.33;60.41;102303.00;4943866;28;45021;-69
2022/01/16 04:43:47;;;;;;;;;60.25;43.25;;;;;4.19;60.44;102288.69;4931228;28;45259;-69
2022/01/16 04:46:32;;;;;;;;;46.00;32.50;;;;;4.04;61.01;102251.41;4933622;28;44992;-69
2022/01/16 04:48:58;;;;;;;;;56.75;43.00;;;;;4.23;60.81;102289.06;4936543;28;45203;-69
2022/01/16 04:51:27;;;;;;;;;54.50;43.75;;;;;4.03;60.96;102257.53;4916531;28;45558;-70
2022/01/16 04:53:53;;;;;;;;;60.50;42.00;;;;;4.12;61.01;102242.34;4910576;28;46964;-70
2022/01/16 04:56:18;;;;;;;;;52.50;34.25;;;;;4.08;60.75;102232.34;4919027;28;45465;-70
2022/01/16 04:58:44;;;;;;;;;59.75;43.00;;;;;4.02;61.06;102235.44;4928280;28;45451;-69
2022/01/16 05:01:10;;;;;;;;;59.50;42.50;;;;;4.27;61.24;102299.88;4932025;28;45613;-69
2022/01/16 05:03:37;;;;;;;;;63.50;44.75;;;;;4.24;61.17;102290.91;4925059;28;46674;-69
2022/01/16 05:06:04;;;;;;;;;59.50;42.25;;;;;4.32;61.24;102302.06;4918512;28;45236;-69
2022/01/16 05:08:30;;;;;;;;;64.25;43.25;;;;;4.07;61.59;102272.81;4915926;28;45601;-70
2022/01/16 05:10:57;;;;;;;;;63.25;41.50;;;;;4.24;61.81;102303.22;4925499;28;45564;-71
2022/01/16 05:18:54;;;;;;;;;61.50;41.50;;;;;4.23;61.40;102311.97;4941648;28;45453;-71
2022/01/16 05:21:20;;;;;;;;;59.50;44.25;;;;;4.17;61.47;102299.16;4919332;28;45334;-70
2022/01/16 05:23:46;;;;;;;;;70.25;43.50;;;;;4.03;61.57;102289.25;4927779;28;45488;-69
2022/01/16 05:26:12;;;;;;;;;49.75;39.50;;;;;4.02;61.95;102287.41;4928033;28;45525;-70
2022/01/16 05:28:38;;;;;;;;;57.25;43.00;;;;;2.91;61.81;102104.41;4927679;28;45340;-71
2022/01/16 05:31:04;;;;;;;;;41.25;32.25;;;;;3.92;62.41;102280.47;4930203;28;45433;-70
2022/01/16 05:33:29;;;;;;;;;48.75;39.00;;;;;4.15;62.66;102323.66;4934419;28;46012;-69
2022/01/16 05:35:55;;;;;;;;;52.25;41.75;;;;;4.16;62.76;102336.09;4930362;28;45494;-69
2022/01/16 05:38:20;;;;;;;;;44.50;33.50;;;;;4.07;62.53;102341.56;4935148;28;45456;-70
2022/01/16 05:40:46;;;;;;;;;50.00;37.50;;;;;4.03;62.98;102348.34;4915021;28;45592;-69
2022/01/16 05:43:12;;;;;;;;;56.75;39.75;;;;;3.95;63.26;102335.34;4931316;28;45674;-69
2022/01/16 05:45:37;;;;;;;;;51.25;40.25;;;;;3.79;63.43;102315.59;4935428;28;45738;-70
2022/01/16 05:48:03;;;;;;;;;63.25;42.75;;;;;3.97;63.48;102317.88;4932742;28;45656;-69
2022/01/16 05:50:31;;;;;;;;;48.25;35.50;;;;;3.92;63.88;102303.38;4925779;28;45453;-69
2022/01/16 05:52:57;;;;;;;;;41.75;30.75;;;;;3.97;63.48;102355.78;4928004;28;45583;-70
2022/01/16 05:55:22;;;;;;;;;49.25;37.25;;;;;3.79;64.10;102318.25;4925334;28;45936;-70
2022/01/16 05:57:48;;;;;;;;;39.00;29.25;;;;;3.89;64.08;102325.19;4925283;28;46861;-70
2022/01/16 06:00:15;;;;;;;;;59.50;37.50;;;;;3.96;63.75;102350.38;4938127;28;45384;-70
2022/01/16 06:02:41;;;;;;;;;36.50;32.00;;;;;3.86;64.10;102327.59;4927070;28;45517;-70
2022/01/16 06:05:07;;;;;;;;;49.75;32.25;;;;;3.80;64.21;102316.56;4925668;28;45493;-70
2022/01/16 06:07:32;;;;;;;;;37.50;32.50;;;;;3.96;64.14;102331.88;4921027;28;45542;-69
2022/01/16 06:09:58;;;;;;;;;43.50;33.50;;;;;3.49;63.92;102232.19;4926082;28;45470;-69
2022/01/16 06:12:23;;;;;;;;;52.00;37.25;;;;;4.02;64.05;102335.00;4921990;28;45558;-70
2022/01/16 06:14:49;;;;;;;;;43.75;33.00;;;;;4.07;63.97;102360.09;4922257;28;45471;-69
2022/01/16 06:17:14;;;;;;;;;37.25;30.00;;;;;3.85;63.60;102331.97;4922695;28;45518;-71
2022/01/16 06:19:40;;;;;;;;;51.50;35.50;;;;;3.95;63.94;102357.41;4921236;28;45451;-72
2022/01/16 06:22:05;;;;;;;;;51.00;30.25;;;;;4.08;64.12;102375.16;4931248;28;46220;-70
2022/01/16 06:24:31;;;;;;;;;58.00;37.50;;;;;4.03;64.41;102371.25;4937919;28;45233;-70
2022/01/16 06:26:56;;;;;;;;;44.00;34.50;;;;;3.78;64.31;102334.94;4933731;28;45335;-69
2022/01/16 06:29:22;;;;;;;;;45.25;34.00;;;;;3.80;64.21;102341.25;4921187;28;45689;-69
2022/01/16 06:31:47;;;;;;;;;44.25;37.75;;;;;3.99;64.45;102383.31;4911158;28;47014;-69
2022/01/16 06:34:13;;;;;;;;;46.25;36.00;;;;;3.72;64.42;102341.47;4927616;28;45343;-70
2022/01/16 06:36:39;;;;;;;;;45.25;35.50;;;;;3.91;64.40;102375.53;4915243;28;45256;-71
2022/01/16 06:39:06;;;;;;;;;36.00;27.50;;;;;3.92;64.64;102372.13;4935464;28;45413;-70
2022/01/16 06:41:33;;;;;;;;;44.50;29.00;;;;;3.93;64.88;102380.16;4932781;28;45436;-70
2022/01/16 06:43:58;;;;;;;;;40.50;26.75;;;;;3.79;64.50;102357.91;4929458;28;45331;-70
2022/01/16 06:46:24;;;;;;;;;24.00;19.00;;;;;3.90;64.78;102384.31;4938518;28;45392;-70
2022/01/16 06:48:50;;;;;;;;;43.25;28.00;;;;;3.20;64.60;102253.63;4932564;28;45468;-69
2022/01/16 06:51:19;;;;;;;;;34.75;24.25;;;;;3.72;64.56;102349.38;4914388;28;45462;-69
2022/01/16 06:53:48;;;;;;;;;34.50;27.75;;;;;3.87;64.60;102377.94;4933118;28;45523;-70
2022/01/16 06:56:15;;;;;;;;;31.00;30.00;;;;;3.71;64.54;102356.38;4922896;28;45453;-69
2022/01/16 06:58:40;;;;;;;;;41.50;26.00;;;;;3.94;64.55;102384.63;4927039;28;45409;-69
2022/01/16 07:01:06;;;;;;;;;43.25;28.50;;;;;4.06;64.23;102414.72;4935318;28;45537;-71
2022/01/16 07:03:31;;;;;;;;;32.25;23.75;;;;;3.85;64.63;102381.28;4933157;28;45466;-70
2022/01/16 07:05:57;;;;;;;;;30.25;20.25;;;;;3.98;64.77;102413.19;4936546;28;45539;-71
2022/01/16 07:08:26;;;;;;;;;33.00;24.75;;;;;4.05;64.54;102430.47;4924143;28;45547;-69
2022/01/16 07:10:56;;;;;;;;;25.50;23.75;;;;;4.10;64.46;102444.06;4931289;28;46327;-69
2022/01/16 07:13:22;;;;;;;;;34.75;23.75;;;;;3.92;64.52;102402.13;4936307;28;45303;-69
2022/01/16 07:15:48;;;;;;;;;29.00;23.00;;;;;4.11;64.26;102414.16;4936975;28;45320;-70
2022/01/16 07:18:14;;;;;;;;;38.75;30.75;;;;;4.13;63.96;102425.78;4936163;28;45563;-69
2022/01/16 07:20:39;;;;;;;;;32.75;20.50;;;;;4.12;64.05;102430.13;4937517;28;45370;-70
2022/01/16 07:23:05;;;;;;;;;31.50;23.00;;;;;4.09;64.55;102414.03;4944125;28;45258;-70
2022/01/16 07:25:30;;;;;;;;;42.75;29.50;;;;;4.00;64.44;102371.00;4946080;28;45390;-70
2022/01/16 07:27:56;;;;;;;;;30.25;22.25;;;;;4.16;64.33;102395.22;4936970;28;45491;-68
2022/01/16 07:30:21;;;;;;;;;23.50;19.50;;;;;4.30;64.24;102432.41;4930130;28;45329;-70
2022/01/16 07:32:47;;;;;;;;;26.00;19.25;;;;;4.37;63.80;102450.59;4929756;28;45581;-69
2022/01/16 07:35:12;;;;;;;;;31.00;25.50;;;;;4.10;63.84;102413.22;4940222;28;45352;-69
2022/01/16 07:37:38;;;;;;;;;35.50;22.00;;;;;4.16;63.94;102411.09;4944790;28;45597;-69
2022/01/16 07:40:03;;;;;;;;;31.75;21.75;;;;;4.10;64.44;102420.25;4936443;28;45506;-69
2022/01/16 07:42:29;;;;;;;;;28.00;23.75;;;;;4.01;63.95;102412.50;4937122;28;45471;-72
2022/01/16 07:44:54;;;;;;;;;25.25;21.25;;;;;4.35;64.12;102449.56;4936867;28;45463;-69
2022/01/16 07:47:19;;;;;;;;;40.50;21.00;;;;;4.28;64.26;102441.97;4932596;28;45471;-68
2022/01/16 07:49:45;;;;;;;;;38.50;20.00;;;;;4.33;64.26;102451.19;4919539;28;46952;-69
2022/01/16 07:52:10;;;;;;;;;29.00;21.75;;;;;4.23;64.47;102445.16;4936911;28;45303;-70
2022/01/16 07:54:35;;;;;;;;;16.00;11.50;;;;;4.33;64.79;102457.38;4936497;28;45284;-70
2022/01/16 07:57:02;;;;;;;;;29.00;26.00;;;;;4.31;64.89;102432.53;4932413;28;45463;-71
2022/01/16 07:59:28;;;;;;;;;24.50;24.00;;;;;4.34;64.47;102421.25;4919397;28;47015;-70
2022/01/16 08:01:53;;;;;;;;;31.75;22.75;;;;;4.39;64.30;102404.94;4927371;28;45377;-70
2022/01/16 08:04:18;;;;;;;;;28.75;21.00;;;;;4.38;64.43;102429.56;4921087;28;45391;-70
2022/01/16 08:06:44;;;;;;;;;27.25;22.75;;;;;4.56;64.10;102431.81;4920447;28;45467;-73
2022/01/16 08:09:09;;;;;;;;;28.25;23.25;;;;;4.58;63.89;102428.47;4919705;28;45297;-70
2022/01/16 08:11:34;;;;;;;;;27.25;23.25;;;;;4.35;64.10;102376.38;4922564;28;45258;-70
2022/01/16 08:14:00;;;;;;;;;31.25;26.25;;;;;4.63;64.29;102425.25;4919788;28;45535;-71
2022/01/16 08:16:26;;;;;;;;;29.25;22.50;;;;;4.68;64.03;102445.06;4930046;28;45307;-69
2022/01/16 08:18:51;;;;;;;;;31.50;21.00;;;;;4.73;64.51;102457.84;4930974;28;45489;-72
2022/01/16 08:21:17;;;;;;;;;26.00;18.25;;;;;4.67;63.65;102436.22;4938083;28;45492;-70
2022/01/16 08:23:42;;;;;;;;;24.25;22.25;;;;;4.75;63.52;102439.44;4921288;28;45105;-70
2022/01/16 08:26:08;;;;;;;;;31.75;20.75;;;;;4.82;64.16;102449.72;4924431;28;45518;-70
2022/01/16 08:28:33;;;;;;;;;30.75;22.00;;;;;4.85;64.08;102449.00;4931838;28;45620;-70
2022/01/16 08:30:58;;;;;;;;;38.50;23.75;;;;;4.75;63.94;102436.78;4923038;28;45492;-69
2022/01/16 08:33:24;;;;;;;;;32.50;21.25;;;;;4.36;64.20;102359.72;4933306;28;45480;-71
2022/01/16 08:35:49;;;;;;;;;29.00;18.50;;;;;4.59;64.07;102392.34;4931489;28;45458;-70
2022/01/16 08:38:15;;;;;;;;;33.00;22.00;;;;;4.90;64.25;102450.28;4922558;28;46582;-70
2022/01/16 08:40:41;;;;;;;;;32.25;20.75;;;;;4.83;64.43;102419.75;4921978;28;45292;-72
2022/01/16 08:43:09;;;;;;;;;33.75;21.75;;;;;4.29;64.36;102330.97;4921903;28;45552;-72
2022/01/16 08:45:39;;;;;;;;;34.75;21.25;;;;;5.05;64.39;102451.47;4923701;28;45532;-71
2022/01/16 08:48:07;;;;;;;;;30.25;24.00;;;;;4.93;64.33;102426.69;4919890;28;45504;-72
2022/01/16 08:50:34;;;;;;;;;38.50;27.50;;;;;5.13;64.12;102452.97;4923185;28;45289;-70
2022/01/16 08:52:59;;;;;;;;;27.75;24.00;;;;;4.27;64.56;102319.31;4909621;28;45540;-70
2022/01/16 08:55:25;;;;;;;;;42.50;29.00;;;;;3.84;64.62;102227.03;4920050;28;45521;-72
2022/01/16 08:57:50;;;;;;;;;28.75;22.75;;;;;5.07;64.51;102451.59;4931153;28;45519;-71
2022/01/16 09:00:16;;;;;;;;;32.50;24.75;;;;;4.10;64.40;102278.34;4923289;28;45602;-71
2022/01/16 09:02:42;;;;;;;;;33.25;20.75;;;;;4.45;64.41;102355.94;4940133;28;45466;-72
2022/01/16 09:05:08;;;;;;;;;40.75;23.25;;;;;4.15;65.00;102310.44;4927666;28;45506;-72
2022/01/16 09:07:33;;;;;;;;;40.00;29.75;;;;;5.06;64.85;102458.59;4934025;28;45476;-73
2022/01/16 09:10:00;;;;;;;;;33.00;17.75;;;;;5.28;64.62;102487.66;4916755;28;45566;-73
2022/01/16 09:12:26;;;;;;;;;37.50;25.00;;;;;4.26;64.02;102317.50;4921804;28;45551;-72
2022/01/16 09:14:52;;;;;;;;;26.75;21.00;;;;;4.61;63.66;102388.09;4928516;28;45716;-72
2022/01/16 09:17:18;;;;;;;;;23.50;20.00;;;;;5.20;64.09;102483.50;4930095;28;45701;-72
2022/01/16 09:19:43;;;;;;;;;36.50;25.25;;;;;5.07;64.46;102451.59;4931201;28;45394;-72
2022/01/16 09:22:08;;;;;;;;;36.25;22.25;;;;;4.59;64.73;102356.19;4921513;28;45397;-73
2022/01/16 09:24:34;;;;;;;;;37.00;27.50;;;;;3.88;63.86;102220.25;4934823;28;45537;-74
2022/01/16 09:27:00;;;;;;;;;30.25;20.50;;;;;3.79;63.83;102231.00;4939569;28;45873;-74
2022/01/16 09:29:25;;;;;;;;;32.25;21.25;;;;;4.48;63.53;102349.16;4939167;28;45892;-73
2022/01/16 09:31:51;;;;;;;;;29.50;21.00;;;;;4.25;63.24;102308.59;4928812;28;45572;-72
2022/01/16 09:34:16;;;;;;;;;39.75;31.00;;;;;5.38;63.50;102505.19;4943617;28;45313;-72
2022/01/16 09:36:41;;;;;;;;;39.25;22.25;;;;;4.76;64.15;102430.69;4936270;28;45283;-73
2022/01/16 09:39:07;;;;;;;;;26.00;22.00;;;;;5.19;64.49;102489.59;4935515;28;45338;-71
2022/01/16 09:41:32;;;;;;;;;37.00;27.25;;;;;4.91;63.67;102446.84;4931833;28;45376;-72
2022/01/16 09:43:58;;;;;;;;;36.50;27.50;;;;;5.30;63.87;102514.28;4925681;28;45405;-73
2022/01/16 09:46:23;;;;;;;;;34.00;25.50;;;;;5.21;63.91;102487.06;4925005;28;45699;-72
2022/01/16 09:48:49;;;;;;;;;30.50;23.25;;;;;5.30;63.73;102504.59;4919818;28;45741;-73
2022/01/16 09:51:14;;;;;;;;;32.25;21.50;;;;;5.35;63.47;102497.00;4920457;28;45551;-72
2022/01/16 09:53:42;;;;;;;;;27.75;23.50;;;;;4.60;62.75;102355.41;4919911;28;45526;-72
2022/01/16 09:56:08;;;;;;;;;28.25;25.50;;;;;5.38;63.09;102509.53;4919192;28;45507;-73
2022/01/16 09:58:34;;;;;;;;;27.00;26.75;;;;;5.38;63.42;102517.50;4919155;28;45557;-71
2022/01/16 10:00:59;;;;;;;;;24.25;20.25;;;;;4.51;63.34;102348.47;4919651;28;45406;-73
2022/01/16 10:03:54;;;;;;;;;26.50;22.25;;;;;4.84;63.03;102386.28;4911973;28;45648;-73
2022/01/16 10:06:22;;;;;;;;;26.50;21.00;;;;;4.45;62.56;102303.03;4905366;28;45523;-73
2022/01/16 10:08:49;;;;;;;;;32.50;20.25;;;;;4.95;62.48;102370.38;4921069;28;45370;-74
2022/01/16 10:11:24;;;;;;;;;33.00;22.75;;;;;5.84;62.20;102500.66;4919394;28;45450;-75
2022/01/16 10:14:13;;;;;;;;;22.50;19.25;;;;;5.35;61.74;102410.44;4919733;28;45494;-74
2022/01/16 10:16:40;;;;;;;;;26.75;21.50;;;;;5.47;61.04;102417.47;4923255;28;46182;-73
2022/01/16 10:19:24;;;;;;;;;23.25;19.00;;;;;5.81;60.98;102486.25;4927401;28;45500;-73
2022/01/16 10:21:50;;;;;;;;;28.50;21.50;;;;;5.24;60.90;102390.19;4934014;28;45473;-73
2022/01/16 10:24:18;;;;;;;;;19.75;15.25;;;;;5.90;60.56;102514.34;4937529;28;45599;-72
2022/01/16 10:26:44;;;;;;;;;25.75;16.75;;;;;5.85;60.79;102506.88;4937376;28;46441;-72
2022/01/16 10:29:15;;;;;;;;;23.75;18.00;;;;;5.50;60.84;102465.41;4946809;28;45434;-71
2022/01/16 10:31:40;;;;;;;;;17.50;12.50;;;;;5.56;60.86;102495.06;4939822;28;45108;-73
2022/01/16 10:34:23;;;;;;;;;21.75;17.25;;;;;5.81;61.79;102523.41;4943339;28;45079;-72
2022/01/16 10:36:49;;;;;;;;;21.50;18.75;;;;;5.83;61.50;102504.13;4938981;28;45069;-71
2022/01/16 10:39:14;;;;;;;;;23.50;20.00;;;;;5.97;61.11;102505.16;4939642;28;45170;-72
2022/01/16 10:41:40;;;;;;;;;18.25;18.25;;;;;5.96;60.65;102511.28;4936981;28;44978;-73
2022/01/16 10:44:33;;;;;;;;;21.00;17.75;;;;;5.89;60.68;102533.75;4941473;28;45861;-73
2022/01/16 10:47:26;;;;;;;;;17.00;17.00;;;;;5.68;60.40;102452.59;4938065;28;45718;-74
2022/01/16 10:50:03;;;;;;;;;17.75;16.25;;;;;4.71;60.46;102305.00;4950920;28;45013;-72
2022/01/16 10:52:28;;;;;;;;;22.00;19.50;;;;;4.57;61.40;102259.88;4945822;28;45265;-71
2022/01/16 10:54:54;;;;;;;;;23.00;13.75;;;;;6.16;60.73;102514.47;4935722;28;44998;-73
2022/01/16 10:57:21;;;;;;;;;24.50;18.75;;;;;6.17;60.89;102522.56;4941926;28;45144;-74
2022/01/16 10:59:46;;;;;;;;;22.50;18.25;;;;;4.99;60.74;102314.19;4936404;28;45247;-72
2022/01/16 11:02:13;;;;;;;;;30.75;21.75;;;;;5.34;61.26;102360.88;4935999;28;45112;-72
2022/01/16 11:04:38;;;;;;;;;20.50;18.75;;;;;5.25;60.99;102335.47;4930636;28;45438;-73
2022/01/16 11:07:05;;;;;;;;;20.25;18.75;;;;;5.13;60.70;102298.38;4925639;28;46339;-74
2022/01/16 11:09:32;;;;;;;;;23.00;21.00;;;;;6.08;60.71;102467.06;4931354;28;45398;-71
2022/01/16 11:11:59;;;;;;;;;28.50;22.25;;;;;5.65;60.99;102387.00;4924929;28;45366;-73
2022/01/16 11:14:29;;;;;;;;;29.50;17.25;;;;;5.30;60.40;102324.38;4902407;28;45311;-74
2022/01/16 11:16:58;;;;;;;;;29.50;26.75;;;;;5.28;60.57;102320.72;4925485;28;46481;-73
2022/01/16 11:19:26;;;;;;;;;29.50;23.00;;;;;6.50;60.62;102507.22;4933443;28;45535;-73
2022/01/16 11:21:55;;;;;;;;;26.25;21.50;;;;;6.48;60.33;102503.50;4924144;28;45437;-73
2022/01/16 11:24:34;;;;;;;;;23.50;20.25;;;;;6.11;60.50;102469.03;4919660;28;45474;-73
2022/01/16 11:27:00;;;;;;;;;29.75;20.00;;;;;5.85;60.56;102422.00;4927975;28;46278;-74
2022/01/16 11:29:29;;;;;;;;;22.00;17.50;;;;;5.76;61.17;102416.03;4929766;28;45548;-74
2022/01/16 11:31:56;;;;;;;;;26.75;19.75;;;;;5.09;61.69;102317.50;4933262;28;45659;-73
2022/01/16 11:34:22;;;;;;;;;21.25;19.00;;;;;4.70;61.66;102268.72;4928685;28;45452;-73
2022/01/16 11:36:47;;;;;;;;;22.00;17.25;;;;;5.86;62.10;102469.88;4919033;28;45352;-73
2022/01/16 11:39:13;;;;;;;;;29.00;25.75;;;;;5.19;62.28;102362.41;4918612;28;45399;-73
2022/01/16 11:41:51;;;;;;;;;20.25;19.00;;;;;6.18;61.81;102515.50;4921665;28;45407;-75
2022/01/16 11:44:24;;;;;;;;;24.75;17.50;;;;;6.21;62.10;102514.00;4927669;28;45643;-73
2022/01/16 11:46:51;;;;;;;;;23.00;20.00;;;;;4.92;61.88;102306.59;4918484;28;45487;-74
2022/01/16 11:49:41;;;;;;;;;21.75;13.25;;;;;4.93;62.06;102300.50;4918853;28;45432;-73
2022/01/16 11:52:07;;;;;;;;;22.25;19.00;;;;;6.25;62.41;102518.72;4928207;28;45738;-74
2022/01/16 11:54:38;;;;;;;;;30.00;22.50;;;;;6.34;62.24;102517.53;4919086;28;45335;-75
2022/01/16 11:57:15;;;;;;;;;30.25;24.00;;;;;6.38;61.83;102519.59;4919242;28;45502;-72
2022/01/16 11:59:41;;;;;;;;;27.25;23.00;;;;;6.05;61.96;102432.34;4925577;28;45351;-76
2022/01/16 12:02:09;;;;;;;;;26.00;18.25;;;;;6.53;61.94;102495.88;4925764;28;45527;-74